sensor_id;sensor_type;location;lat;lon;timestamp;temperature;humidity
15115;DHT22;7658;51.456;7.622;2022-07-29T00:00:04;18.70;99.90
15115;DHT22;7658;51.456;7.622;2022-07-29T00:02:30;18.70;99.90
15115;DHT22;7658;51.456;7.622;2022-07-29T00:04:57;18.70;99.90
15115;DHT22;7658;51.456;7.622;2022-07-29T00:07:23;18.70;99.90
15115;DHT22;7658;51.456;7.622;2022-07-29T00:09:49;18.70;99.90
15115;DHT22;7658;51.456;7.622;2022-07-29T00:12:15;18.70;99.90
15115;DHT22;7658;51.456;7.622;2022-07-29T00:14:41;18.60;99.90
15115;DHT22;7658;51.456;7.622;2022-07-29T00:17:07;18.70;99.90
15115;DHT22;7658;51.456;7.622;2022-07-29T00:19:32;18.60;99.90
15115;DHT22;7658;51.456;7.622;2022-07-29T00:22:00;18.60;99.90
15115;DHT22;7658;51.456;7.622;2022-07-29T00:24:25;18.70;99.90
15115;DHT22;7658;51.456;7.622;2022-07-29T00:26:51;18.60;99.90
15115;DHT22;7658;51.456;7.622;2022-07-29T00:29:17;18.60;99.90
15115;DHT22;7658;51.456;7.622;2022-07-29T00:31:43;18.60;99.90
15115;DHT22;7658;51.456;7.622;2022-07-29T00:34:09;18.60;99.90
15115;DHT22;7658;51.456;7.622;2022-07-29T00:36:55;18.60;99.90
15115;DHT22;7658;51.456;7.622;2022-07-29T00:39:21;18.60;99.90
15115;DHT22;7658;51.456;7.622;2022-07-29T00:41:47;18.60;99.90
15115;DHT22;7658;51.456;7.622;2022-07-29T00:44:12;18.60;99.90
15115;DHT22;7658;51.456;7.622;2022-07-29T00:46:38;18.60;99.90
15115;DHT22;7658;51.456;7.622;2022-07-29T00:49:04;18.50;99.90
15115;DHT22;7658;51.456;7.622;2022-07-29T00:51:30;18.50;99.90
15115;DHT22;7658;51.456;7.622;2022-07-29T00:53:57;18.50;99.90
15115;DHT22;7658;51.456;7.622;2022-07-29T00:56:22;18.40;99.90
15115;DHT22;7658;51.456;7.622;2022-07-29T00:58:50;18.40;99.90
15115;DHT22;7658;51.456;7.622;2022-07-29T01:01:16;18.30;99.90
15115;DHT22;7658;51.456;7.622;2022-07-29T01:03:42;18.30;99.90
15115;DHT22;7658;51.456;7.622;2022-07-29T01:06:09;18.20;99.90
15115;DHT22;7658;51.456;7.622;2022-07-29T01:08:35;18.20;99.90
15115;DHT22;7658;51.456;7.622;2022-07-29T01:11:01;18.10;99.90
15115;DHT22;7658;51.456;7.622;2022-07-29T01:13:27;18.00;99.90
15115;DHT22;7658;51.456;7.622;2022-07-29T01:15:59;17.90;99.90
15115;DHT22;7658;51.456;7.622;2022-07-29T01:18:33;17.90;99.90
15115;DHT22;7658;51.456;7.622;2022-07-29T01:24:01;17.70;99.90
15115;DHT22;7658;51.456;7.622;2022-07-29T01:27:24;17.70;99.90
15115;DHT22;7658;51.456;7.622;2022-07-29T01:29:53;17.70;99.90
15115;DHT22;7658;51.456;7.622;2022-07-29T01:32:24;17.70;99.90
15115;DHT22;7658;51.456;7.622;2022-07-29T01:38:21;17.60;99.90
15115;DHT22;7658;51.456;7.622;2022-07-29T01:40:31;17.60;99.90
15115;DHT22;7658;51.456;7.622;2022-07-29T01:43:03;17.60;99.90
15115;DHT22;7658;51.456;7.622;2022-07-29T01:45:40;17.50;99.90
15115;DHT22;7658;51.456;7.622;2022-07-29T01:48:24;17.50;99.90
15115;DHT22;7658;51.456;7.622;2022-07-29T01:53:29;17.40;99.90
15115;DHT22;7658;51.456;7.622;2022-07-29T01:55:57;17.40;99.90
15115;DHT22;7658;51.456;7.622;2022-07-29T01:58:27;17.40;99.90
15115;DHT22;7658;51.456;7.622;2022-07-29T02:00:54;17.30;99.90
15115;DHT22;7658;51.456;7.622;2022-07-29T02:03:21;17.30;99.90
15115;DHT22;7658;51.456;7.622;2022-07-29T02:05:48;17.30;99.90
15115;DHT22;7658;51.456;7.622;2022-07-29T02:08:15;17.20;99.90
15115;DHT22;7658;51.456;7.622;2022-07-29T02:10:45;17.20;99.90
15115;DHT22;7658;51.456;7.622;2022-07-29T02:13:13;17.10;99.90
15115;DHT22;7658;51.456;7.622;2022-07-29T02:15:41;17.00;99.90
15115;DHT22;7658;51.456;7.622;2022-07-29T02:18:16;17.00;99.90
15115;DHT22;7658;51.456;7.622;2022-07-29T02:20:45;17.00;99.90
15115;DHT22;7658;51.456;7.622;2022-07-29T02:23:13;17.00;99.90
15115;DHT22;7658;51.456;7.622;2022-07-29T02:25:41;17.00;99.90
15115;DHT22;7658;51.456;7.622;2022-07-29T02:28:08;17.00;99.90
15115;DHT22;7658;51.456;7.622;2022-07-29T02:30:40;17.00;99.90
15115;DHT22;7658;51.456;7.622;2022-07-29T02:33:08;17.00;99.90
15115;DHT22;7658;51.456;7.622;2022-07-29T02:35:35;17.00;99.90
15115;DHT22;7658;51.456;7.622;2022-07-29T02:38:02;17.00;99.90
15115;DHT22;7658;51.456;7.622;2022-07-29T02:40:47;17.00;99.90
15115;DHT22;7658;51.456;7.622;2022-07-29T02:43:14;17.10;99.90
15115;DHT22;7658;51.456;7.622;2022-07-29T02:45:40;17.00;99.90
15115;DHT22;7658;51.456;7.622;2022-07-29T02:48:12;17.00;99.90
15115;DHT22;7658;51.456;7.622;2022-07-29T02:50:44;17.00;99.90
15115;DHT22;7658;51.456;7.622;2022-07-29T02:53:17;16.80;99.90
15115;DHT22;7658;51.456;7.622;2022-07-29T02:55:47;16.60;99.90
15115;DHT22;7658;51.456;7.622;2022-07-29T02:58:32;16.50;99.90
15115;DHT22;7658;51.456;7.622;2022-07-29T03:01:11;16.50;99.90
15115;DHT22;7658;51.456;7.622;2022-07-29T03:03:38;16.60;99.90
15115;DHT22;7658;51.456;7.622;2022-07-29T03:06:07;16.60;99.90
15115;DHT22;7658;51.456;7.622;2022-07-29T03:08:34;16.60;99.90
15115;DHT22;7658;51.456;7.622;2022-07-29T03:11:01;16.60;99.90
15115;DHT22;7658;51.456;7.622;2022-07-29T03:13:29;16.50;99.90
15115;DHT22;7658;51.456;7.622;2022-07-29T03:15:57;16.50;99.90
15115;DHT22;7658;51.456;7.622;2022-07-29T03:18:23;16.50;99.90
15115;DHT22;7658;51.456;7.622;2022-07-29T03:20:50;16.50;99.90
15115;DHT22;7658;51.456;7.622;2022-07-29T03:23:22;16.50;99.90
15115;DHT22;7658;51.456;7.622;2022-07-29T03:25:52;16.50;99.90
15115;DHT22;7658;51.456;7.622;2022-07-29T03:28:18;16.50;99.90
15115;DHT22;7658;51.456;7.622;2022-07-29T03:30:45;16.40;99.90
15115;DHT22;7658;51.456;7.622;2022-07-29T03:33:11;16.40;99.90
15115;DHT22;7658;51.456;7.622;2022-07-29T03:35:37;16.40;99.90
15115;DHT22;7658;51.456;7.622;2022-07-29T03:38:03;16.40;99.90
15115;DHT22;7658;51.456;7.622;2022-07-29T03:40:38;16.50;99.90
15115;DHT22;7658;51.456;7.622;2022-07-29T03:43:07;16.40;99.90
15115;DHT22;7658;51.456;7.622;2022-07-29T03:45:35;16.40;99.90
15115;DHT22;7658;51.456;7.622;2022-07-29T03:48:07;16.40;99.90
15115;DHT22;7658;51.456;7.622;2022-07-29T03:50:34;16.40;99.90
15115;DHT22;7658;51.456;7.622;2022-07-29T03:53:01;16.40;99.90
15115;DHT22;7658;51.456;7.622;2022-07-29T03:55:30;16.40;99.90
15115;DHT22;7658;51.456;7.622;2022-07-29T03:57:57;16.40;99.90
15115;DHT22;7658;51.456;7.622;2022-07-29T04:00:24;16.40;99.90
15115;DHT22;7658;51.456;7.622;2022-07-29T04:02:51;16.40;99.90
15115;DHT22;7658;51.456;7.622;2022-07-29T04:05:17;16.40;99.90
15115;DHT22;7658;51.456;7.622;2022-07-29T04:07:44;16.40;99.90
15115;DHT22;7658;51.456;7.622;2022-07-29T04:10:11;16.30;99.90
15115;DHT22;7658;51.456;7.622;2022-07-29T04:12:37;16.20;99.90
15115;DHT22;7658;51.456;7.622;2022-07-29T04:15:06;16.20;99.90
15115;DHT22;7658;51.456;7.622;2022-07-29T04:17:32;16.10;99.90
15115;DHT22;7658;51.456;7.622;2022-07-29T04:19:57;16.10;99.90
15115;DHT22;7658;51.456;7.622;2022-07-29T04:22:23;16.10;99.90
15115;DHT22;7658;51.456;7.622;2022-07-29T04:24:49;16.20;99.90
15115;DHT22;7658;51.456;7.622;2022-07-29T04:27:14;16.10;99.90
15115;DHT22;7658;51.456;7.622;2022-07-29T04:29:40;16.20;99.90
15115;DHT22;7658;51.456;7.622;2022-07-29T04:32:06;16.20;99.90
15115;DHT22;7658;51.456;7.622;2022-07-29T04:34:32;16.20;99.90
15115;DHT22;7658;51.456;7.622;2022-07-29T04:36:57;16.20;99.90
15115;DHT22;7658;51.456;7.622;2022-07-29T04:39:24;16.20;99.90
15115;DHT22;7658;51.456;7.622;2022-07-29T04:41:50;16.20;99.90
15115;DHT22;7658;51.456;7.622;2022-07-29T04:44:16;16.20;99.90
15115;DHT22;7658;51.456;7.622;2022-07-29T04:46:41;16.20;99.90
15115;DHT22;7658;51.456;7.622;2022-07-29T04:49:07;16.00;99.90
15115;DHT22;7658;51.456;7.622;2022-07-29T04:51:33;15.90;99.90
15115;DHT22;7658;51.456;7.622;2022-07-29T04:53:59;15.80;99.90
15115;DHT22;7658;51.456;7.622;2022-07-29T04:56:25;15.80;99.90
15115;DHT22;7658;51.456;7.622;2022-07-29T04:58:51;15.90;99.90
15115;DHT22;7658;51.456;7.622;2022-07-29T05:01:17;15.90;99.90
15115;DHT22;7658;51.456;7.622;2022-07-29T05:03:43;15.90;99.90
15115;DHT22;7658;51.456;7.622;2022-07-29T05:06:09;16.00;99.90
15115;DHT22;7658;51.456;7.622;2022-07-29T05:08:35;16.00;99.90
15115;DHT22;7658;51.456;7.622;2022-07-29T05:11:00;16.10;99.90
15115;DHT22;7658;51.456;7.622;2022-07-29T05:13:26;16.20;99.90
15115;DHT22;7658;51.456;7.622;2022-07-29T05:15:52;16.30;99.90
15115;DHT22;7658;51.456;7.622;2022-07-29T05:18:18;16.40;99.90
15115;DHT22;7658;51.456;7.622;2022-07-29T05:20:43;16.40;99.90
15115;DHT22;7658;51.456;7.622;2022-07-29T05:23:09;16.50;99.90
15115;DHT22;7658;51.456;7.622;2022-07-29T05:25:38;16.60;99.90
15115;DHT22;7658;51.456;7.622;2022-07-29T05:28:04;16.70;99.90
15115;DHT22;7658;51.456;7.622;2022-07-29T05:30:29;16.80;99.90
15115;DHT22;7658;51.456;7.622;2022-07-29T05:32:55;16.80;99.90
15115;DHT22;7658;51.456;7.622;2022-07-29T05:35:21;16.90;99.90
15115;DHT22;7658;51.456;7.622;2022-07-29T05:37:47;16.90;99.90
15115;DHT22;7658;51.456;7.622;2022-07-29T05:40:12;16.90;99.90
15115;DHT22;7658;51.456;7.622;2022-07-29T05:42:38;16.90;99.90
15115;DHT22;7658;51.456;7.622;2022-07-29T05:45:05;17.00;99.90
15115;DHT22;7658;51.456;7.622;2022-07-29T05:47:31;17.10;99.90
15115;DHT22;7658;51.456;7.622;2022-07-29T05:49:56;17.10;99.90
15115;DHT22;7658;51.456;7.622;2022-07-29T05:52:22;17.10;99.90
15115;DHT22;7658;51.456;7.622;2022-07-29T05:54:48;17.10;99.90
15115;DHT22;7658;51.456;7.622;2022-07-29T05:57:23;17.10;99.90
15115;DHT22;7658;51.456;7.622;2022-07-29T05:59:49;17.10;99.90
15115;DHT22;7658;51.456;7.622;2022-07-29T06:02:16;17.00;99.90
15115;DHT22;7658;51.456;7.622;2022-07-29T06:04:42;17.00;99.90
15115;DHT22;7658;51.456;7.622;2022-07-29T06:07:08;17.00;99.90
15115;DHT22;7658;51.456;7.622;2022-07-29T06:09:34;17.00;99.90
15115;DHT22;7658;51.456;7.622;2022-07-29T06:12:00;17.00;99.90
15115;DHT22;7658;51.456;7.622;2022-07-29T06:14:26;17.10;99.90
15115;DHT22;7658;51.456;7.622;2022-07-29T06:16:54;17.10;99.90
15115;DHT22;7658;51.456;7.622;2022-07-29T06:19:19;17.20;99.90
15115;DHT22;7658;51.456;7.622;2022-07-29T06:21:46;17.20;99.90
15115;DHT22;7658;51.456;7.622;2022-07-29T06:24:13;17.30;99.90
15115;DHT22;7658;51.456;7.622;2022-07-29T06:26:39;17.30;99.90
15115;DHT22;7658;51.456;7.622;2022-07-29T06:29:06;17.30;99.90
15115;DHT22;7658;51.456;7.622;2022-07-29T06:31:32;17.30;99.90
15115;DHT22;7658;51.456;7.622;2022-07-29T06:33:58;17.40;99.90
15115;DHT22;7658;51.456;7.622;2022-07-29T06:36:24;17.40;99.90
15115;DHT22;7658;51.456;7.622;2022-07-29T06:38:49;17.30;99.90
15115;DHT22;7658;51.456;7.622;2022-07-29T06:41:15;17.30;99.90
15115;DHT22;7658;51.456;7.622;2022-07-29T06:43:43;17.30;99.90
15115;DHT22;7658;51.456;7.622;2022-07-29T06:46:14;17.40;99.90
15115;DHT22;7658;51.456;7.622;2022-07-29T06:48:41;17.40;99.90
15115;DHT22;7658;51.456;7.622;2022-07-29T06:51:10;17.50;99.90
15115;DHT22;7658;51.456;7.622;2022-07-29T06:53:39;17.60;99.90
15115;DHT22;7658;51.456;7.622;2022-07-29T06:56:06;17.60;99.90
15115;DHT22;7658;51.456;7.622;2022-07-29T06:58:35;17.70;99.90
15115;DHT22;7658;51.456;7.622;2022-07-29T07:01:03;17.80;99.90
15115;DHT22;7658;51.456;7.622;2022-07-29T07:03:29;17.90;99.90
15115;DHT22;7658;51.456;7.622;2022-07-29T07:05:55;18.00;99.90
15115;DHT22;7658;51.456;7.622;2022-07-29T07:08:21;18.10;99.90
15115;DHT22;7658;51.456;7.622;2022-07-29T07:10:48;18.10;99.90
15115;DHT22;7658;51.456;7.622;2022-07-29T07:13:14;18.30;99.90
15115;DHT22;7658;51.456;7.622;2022-07-29T07:15:40;18.40;99.90
15115;DHT22;7658;51.456;7.622;2022-07-29T07:18:06;18.50;99.90
15115;DHT22;7658;51.456;7.622;2022-07-29T07:20:33;18.60;99.90
15115;DHT22;7658;51.456;7.622;2022-07-29T07:22:59;18.70;99.90
15115;DHT22;7658;51.456;7.622;2022-07-29T07:25:25;18.80;99.90
15115;DHT22;7658;51.456;7.622;2022-07-29T07:27:51;18.80;99.90
15115;DHT22;7658;51.456;7.622;2022-07-29T07:30:16;18.90;99.90
15115;DHT22;7658;51.456;7.622;2022-07-29T07:32:42;19.00;99.90
15115;DHT22;7658;51.456;7.622;2022-07-29T07:35:10;19.00;99.90
15115;DHT22;7658;51.456;7.622;2022-07-29T07:37:36;19.10;99.90
15115;DHT22;7658;51.456;7.622;2022-07-29T07:40:03;19.20;99.90
15115;DHT22;7658;51.456;7.622;2022-07-29T07:42:29;19.20;99.90
15115;DHT22;7658;51.456;7.622;2022-07-29T07:44:55;19.20;99.90
15115;DHT22;7658;51.456;7.622;2022-07-29T07:47:21;19.30;99.90
15115;DHT22;7658;51.456;7.622;2022-07-29T07:49:50;19.40;99.90
15115;DHT22;7658;51.456;7.622;2022-07-29T07:52:17;19.40;99.90
15115;DHT22;7658;51.456;7.622;2022-07-29T07:54:44;19.70;99.90
15115;DHT22;7658;51.456;7.622;2022-07-29T07:57:14;19.90;99.90
15115;DHT22;7658;51.456;7.622;2022-07-29T07:59:41;20.00;99.90
15115;DHT22;7658;51.456;7.622;2022-07-29T08:02:07;20.20;99.90
15115;DHT22;7658;51.456;7.622;2022-07-29T08:04:33;20.20;99.90
15115;DHT22;7658;51.456;7.622;2022-07-29T08:07:00;20.30;99.90
15115;DHT22;7658;51.456;7.622;2022-07-29T08:09:27;20.20;99.90
15115;DHT22;7658;51.456;7.622;2022-07-29T08:11:53;20.40;99.90
15115;DHT22;7658;51.456;7.622;2022-07-29T08:14:20;20.50;99.90
15115;DHT22;7658;51.456;7.622;2022-07-29T08:16:46;20.60;99.90
15115;DHT22;7658;51.456;7.622;2022-07-29T08:19:12;20.50;99.90
15115;DHT22;7658;51.456;7.622;2022-07-29T08:21:38;20.40;99.90
15115;DHT22;7658;51.456;7.622;2022-07-29T08:24:04;20.40;99.90
15115;DHT22;7658;51.456;7.622;2022-07-29T08:26:49;20.40;99.90
15115;DHT22;7658;51.456;7.622;2022-07-29T08:29:14;20.40;99.90
15115;DHT22;7658;51.456;7.622;2022-07-29T08:31:41;20.60;99.90
15115;DHT22;7658;51.456;7.622;2022-07-29T08:34:07;20.70;99.90
15115;DHT22;7658;51.456;7.622;2022-07-29T08:36:34;20.80;99.90
15115;DHT22;7658;51.456;7.622;2022-07-29T08:39:00;20.90;99.90
15115;DHT22;7658;51.456;7.622;2022-07-29T08:41:27;21.00;99.90
15115;DHT22;7658;51.456;7.622;2022-07-29T08:43:53;21.20;99.90
15115;DHT22;7658;51.456;7.622;2022-07-29T08:46:20;21.20;99.90
15115;DHT22;7658;51.456;7.622;2022-07-29T08:48:46;21.40;99.90
15115;DHT22;7658;51.456;7.622;2022-07-29T08:51:18;21.60;99.90
15115;DHT22;7658;51.456;7.622;2022-07-29T08:53:45;21.70;99.90
15115;DHT22;7658;51.456;7.622;2022-07-29T08:56:14;21.70;99.90
15115;DHT22;7658;51.456;7.622;2022-07-29T08:58:40;21.60;99.90
15115;DHT22;7658;51.456;7.622;2022-07-29T09:01:07;21.50;99.90
15115;DHT22;7658;51.456;7.622;2022-07-29T09:03:36;21.60;99.90
15115;DHT22;7658;51.456;7.622;2022-07-29T09:06:03;21.70;99.90
15115;DHT22;7658;51.456;7.622;2022-07-29T09:08:31;21.70;99.90
15115;DHT22;7658;51.456;7.622;2022-07-29T09:10:57;21.70;99.90
15115;DHT22;7658;51.456;7.622;2022-07-29T09:13:25;21.90;99.90
15115;DHT22;7658;51.456;7.622;2022-07-29T09:15:51;22.20;99.90
15115;DHT22;7658;51.456;7.622;2022-07-29T09:18:46;22.20;99.90
15115;DHT22;7658;51.456;7.622;2022-07-29T09:21:14;22.30;99.90
15115;DHT22;7658;51.456;7.622;2022-07-29T09:24:08;22.50;99.90
15115;DHT22;7658;51.456;7.622;2022-07-29T09:26:44;22.50;99.90
15115;DHT22;7658;51.456;7.622;2022-07-29T09:29:12;22.60;99.90
15115;DHT22;7658;51.456;7.622;2022-07-29T09:31:41;22.50;99.90
15115;DHT22;7658;51.456;7.622;2022-07-29T09:34:07;22.50;99.90
15115;DHT22;7658;51.456;7.622;2022-07-29T09:36:45;22.50;99.90
15115;DHT22;7658;51.456;7.622;2022-07-29T09:39:12;22.50;99.90
15115;DHT22;7658;51.456;7.622;2022-07-29T09:41:51;22.40;99.90
15115;DHT22;7658;51.456;7.622;2022-07-29T09:44:24;22.60;99.90
15115;DHT22;7658;51.456;7.622;2022-07-29T09:47:01;22.60;99.90
15115;DHT22;7658;51.456;7.622;2022-07-29T09:52:24;22.60;99.90
15115;DHT22;7658;51.456;7.622;2022-07-29T09:54:50;23.00;99.90
15115;DHT22;7658;51.456;7.622;2022-07-29T09:57:25;23.10;99.90
15115;DHT22;7658;51.456;7.622;2022-07-29T09:59:58;23.00;99.90
15115;DHT22;7658;51.456;7.622;2022-07-29T10:02:29;23.10;99.90
15115;DHT22;7658;51.456;7.622;2022-07-29T10:04:56;23.30;99.90
15115;DHT22;7658;51.456;7.622;2022-07-29T10:07:22;23.40;99.90
15115;DHT22;7658;51.456;7.622;2022-07-29T10:09:55;23.30;99.90
15115;DHT22;7658;51.456;7.622;2022-07-29T10:12:21;23.20;99.90
15115;DHT22;7658;51.456;7.622;2022-07-29T10:14:48;23.30;99.90
15115;DHT22;7658;51.456;7.622;2022-07-29T10:17:15;23.30;99.90
15115;DHT22;7658;51.456;7.622;2022-07-29T10:19:42;23.40;99.90
15115;DHT22;7658;51.456;7.622;2022-07-29T10:22:09;23.30;99.90
15115;DHT22;7658;51.456;7.622;2022-07-29T10:24:37;23.20;99.90
15115;DHT22;7658;51.456;7.622;2022-07-29T10:27:07;23.20;99.90
15115;DHT22;7658;51.456;7.622;2022-07-29T10:29:42;23.10;99.90
15115;DHT22;7658;51.456;7.622;2022-07-29T10:32:51;23.10;99.90
15115;DHT22;7658;51.456;7.622;2022-07-29T10:41:11;22.60;99.90
15115;DHT22;7658;51.456;7.622;2022-07-29T10:44:28;22.50;99.90
15115;DHT22;7658;51.456;7.622;2022-07-29T10:46:48;22.40;99.90
15115;DHT22;7658;51.456;7.622;2022-07-29T10:49:16;22.30;99.90
15115;DHT22;7658;51.456;7.622;2022-07-29T10:52:08;22.30;99.90
15115;DHT22;7658;51.456;7.622;2022-07-29T11:00:27;22.00;99.90
15115;DHT22;7658;51.456;7.622;2022-07-29T11:07:39;21.80;99.90
15115;DHT22;7658;51.456;7.622;2022-07-29T11:15:12;21.90;99.90
15115;DHT22;7658;51.456;7.622;2022-07-29T11:20:32;21.90;99.90
15115;DHT22;7658;51.456;7.622;2022-07-29T11:22:58;21.90;99.90
15115;DHT22;7658;51.456;7.622;2022-07-29T11:25:24;21.80;99.90
15115;DHT22;7658;51.456;7.622;2022-07-29T11:28:07;21.80;99.90
15115;DHT22;7658;51.456;7.622;2022-07-29T11:31:03;21.80;99.90
15115;DHT22;7658;51.456;7.622;2022-07-29T11:33:33;21.80;99.90
15115;DHT22;7658;51.456;7.622;2022-07-29T11:36:14;21.90;99.90
15115;DHT22;7658;51.456;7.622;2022-07-29T11:38:40;22.20;99.90
15115;DHT22;7658;51.456;7.622;2022-07-29T11:43:58;22.40;99.90
15115;DHT22;7658;51.456;7.622;2022-07-29T11:46:49;22.70;99.90
15115;DHT22;7658;51.456;7.622;2022-07-29T11:49:26;23.00;99.90
15115;DHT22;7658;51.456;7.622;2022-07-29T11:54:26;23.20;99.90
15115;DHT22;7658;51.456;7.622;2022-07-29T11:56:52;23.30;99.90
15115;DHT22;7658;51.456;7.622;2022-07-29T11:59:19;23.40;99.90
15115;DHT22;7658;51.456;7.622;2022-07-29T12:01:54;23.40;99.90
15115;DHT22;7658;51.456;7.622;2022-07-29T12:04:20;23.40;99.90
15115;DHT22;7658;51.456;7.622;2022-07-29T12:06:54;23.50;99.90
15115;DHT22;7658;51.456;7.622;2022-07-29T12:09:21;23.60;99.90
15115;DHT22;7658;51.456;7.622;2022-07-29T12:11:47;23.70;99.90
15115;DHT22;7658;51.456;7.622;2022-07-29T12:14:29;23.50;99.90
15115;DHT22;7658;51.456;7.622;2022-07-29T12:16:55;23.30;99.90
15115;DHT22;7658;51.456;7.622;2022-07-29T12:19:21;23.10;99.90
15115;DHT22;7658;51.456;7.622;2022-07-29T12:21:48;23.10;99.90
15115;DHT22;7658;51.456;7.622;2022-07-29T12:24:14;23.10;99.90
15115;DHT22;7658;51.456;7.622;2022-07-29T12:26:55;23.10;99.90
15115;DHT22;7658;51.456;7.622;2022-07-29T12:29:21;23.00;99.90
15115;DHT22;7658;51.456;7.622;2022-07-29T12:31:51;22.90;99.90
15115;DHT22;7658;51.456;7.622;2022-07-29T12:34:20;22.80;99.90
15115;DHT22;7658;51.456;7.622;2022-07-29T12:36:48;22.80;99.90
15115;DHT22;7658;51.456;7.622;2022-07-29T12:39:16;22.90;99.90
15115;DHT22;7658;51.456;7.622;2022-07-29T12:41:43;22.80;99.90
15115;DHT22;7658;51.456;7.622;2022-07-29T12:44:09;22.80;99.90
15115;DHT22;7658;51.456;7.622;2022-07-29T12:46:36;22.80;99.90
15115;DHT22;7658;51.456;7.622;2022-07-29T12:49:02;22.80;99.90
15115;DHT22;7658;51.456;7.622;2022-07-29T12:51:37;22.80;99.90
15115;DHT22;7658;51.456;7.622;2022-07-29T12:54:10;22.60;99.90
15115;DHT22;7658;51.456;7.622;2022-07-29T12:56:41;22.50;99.90
15115;DHT22;7658;51.456;7.622;2022-07-29T12:59:18;22.40;99.90
15115;DHT22;7658;51.456;7.622;2022-07-29T13:01:46;22.40;99.90
15115;DHT22;7658;51.456;7.622;2022-07-29T13:04:44;22.30;99.90
15115;DHT22;7658;51.456;7.622;2022-07-29T13:07:24;22.20;99.90
15115;DHT22;7658;51.456;7.622;2022-07-29T13:09:51;22.30;99.90
15115;DHT22;7658;51.456;7.622;2022-07-29T13:12:17;22.50;99.90
15115;DHT22;7658;51.456;7.622;2022-07-29T13:14:47;22.50;99.90
15115;DHT22;7658;51.456;7.622;2022-07-29T13:17:15;22.40;99.90
15115;DHT22;7658;51.456;7.622;2022-07-29T13:19:48;22.40;99.90
15115;DHT22;7658;51.456;7.622;2022-07-29T13:22:20;22.20;99.90
15115;DHT22;7658;51.456;7.622;2022-07-29T13:27:14;22.00;99.90
15115;DHT22;7658;51.456;7.622;2022-07-29T13:29:40;21.90;99.90
15115;DHT22;7658;51.456;7.622;2022-07-29T13:32:05;21.80;99.90
15115;DHT22;7658;51.456;7.622;2022-07-29T13:34:31;21.70;99.90
15115;DHT22;7658;51.456;7.622;2022-07-29T13:36:57;21.50;99.90
15115;DHT22;7658;51.456;7.622;2022-07-29T13:39:23;21.60;99.90
15115;DHT22;7658;51.456;7.622;2022-07-29T13:41:48;21.70;99.90
15115;DHT22;7658;51.456;7.622;2022-07-29T13:44:15;21.70;99.90
15115;DHT22;7658;51.456;7.622;2022-07-29T13:46:40;21.70;99.90
15115;DHT22;7658;51.456;7.622;2022-07-29T13:49:08;22.00;99.90
15115;DHT22;7658;51.456;7.622;2022-07-29T13:51:33;22.30;99.90
15115;DHT22;7658;51.456;7.622;2022-07-29T13:53:59;22.60;99.90
15115;DHT22;7658;51.456;7.622;2022-07-29T13:56:25;23.00;99.90
15115;DHT22;7658;51.456;7.622;2022-07-29T13:58:51;23.20;99.90
15115;DHT22;7658;51.456;7.622;2022-07-29T14:01:17;23.20;99.90
15115;DHT22;7658;51.456;7.622;2022-07-29T14:03:43;23.60;99.90
15115;DHT22;7658;51.456;7.622;2022-07-29T14:06:09;24.30;99.90
15115;DHT22;7658;51.456;7.622;2022-07-29T14:08:34;24.50;99.90
15115;DHT22;7658;51.456;7.622;2022-07-29T14:11:00;24.60;99.90
15115;DHT22;7658;51.456;7.622;2022-07-29T14:13:26;24.60;99.90
15115;DHT22;7658;51.456;7.622;2022-07-29T14:15:52;24.70;99.90
15115;DHT22;7658;51.456;7.622;2022-07-29T14:18:17;24.40;99.90
15115;DHT22;7658;51.456;7.622;2022-07-29T14:20:43;24.50;99.90
15115;DHT22;7658;51.456;7.622;2022-07-29T14:23:09;23.90;99.90
15115;DHT22;7658;51.456;7.622;2022-07-29T14:25:35;23.70;99.90
15115;DHT22;7658;51.456;7.622;2022-07-29T14:28:01;23.40;99.90
15115;DHT22;7658;51.456;7.622;2022-07-29T14:30:27;23.60;99.90
15115;DHT22;7658;51.456;7.622;2022-07-29T14:32:52;23.70;99.90
15115;DHT22;7658;51.456;7.622;2022-07-29T14:35:19;23.60;99.90
15115;DHT22;7658;51.456;7.622;2022-07-29T14:37:44;23.70;99.90
15115;DHT22;7658;51.456;7.622;2022-07-29T14:40:10;23.90;99.90
15115;DHT22;7658;51.456;7.622;2022-07-29T14:42:37;24.00;99.90
15115;DHT22;7658;51.456;7.622;2022-07-29T14:45:04;24.20;99.90
15115;DHT22;7658;51.456;7.622;2022-07-29T14:47:31;24.40;99.90
15115;DHT22;7658;51.456;7.622;2022-07-29T14:49:57;24.50;99.90
15115;DHT22;7658;51.456;7.622;2022-07-29T14:52:23;24.40;99.90
15115;DHT22;7658;51.456;7.622;2022-07-29T14:54:49;24.20;99.90
15115;DHT22;7658;51.456;7.622;2022-07-29T14:57:14;24.20;99.90
15115;DHT22;7658;51.456;7.622;2022-07-29T14:59:40;24.40;99.90
15115;DHT22;7658;51.456;7.622;2022-07-29T15:02:06;24.70;99.90
15115;DHT22;7658;51.456;7.622;2022-07-29T15:04:32;24.70;99.90
15115;DHT22;7658;51.456;7.622;2022-07-29T15:06:57;24.90;99.90
15115;DHT22;7658;51.456;7.622;2022-07-29T15:09:23;25.00;99.90
15115;DHT22;7658;51.456;7.622;2022-07-29T15:11:49;25.10;99.90
15115;DHT22;7658;51.456;7.622;2022-07-29T15:14:15;25.40;99.90
15115;DHT22;7658;51.456;7.622;2022-07-29T15:16:41;25.70;99.90
15115;DHT22;7658;51.456;7.622;2022-07-29T15:19:10;26.10;99.90
15115;DHT22;7658;51.456;7.622;2022-07-29T15:21:36;26.00;99.90
15115;DHT22;7658;51.456;7.622;2022-07-29T15:24:02;26.00;99.90
15115;DHT22;7658;51.456;7.622;2022-07-29T15:26:28;25.90;99.90
15115;DHT22;7658;51.456;7.622;2022-07-29T15:28:54;25.90;99.90
15115;DHT22;7658;51.456;7.622;2022-07-29T15:31:21;25.90;99.90
15115;DHT22;7658;51.456;7.622;2022-07-29T15:33:47;25.90;99.90
15115;DHT22;7658;51.456;7.622;2022-07-29T15:36:13;25.80;99.90
15115;DHT22;7658;51.456;7.622;2022-07-29T15:38:41;25.50;99.90
15115;DHT22;7658;51.456;7.622;2022-07-29T15:41:09;25.20;99.90
15115;DHT22;7658;51.456;7.622;2022-07-29T15:43:43;25.00;99.90
15115;DHT22;7658;51.456;7.622;2022-07-29T15:46:14;25.10;99.90
15115;DHT22;7658;51.456;7.622;2022-07-29T15:49:00;25.40;99.90
15115;DHT22;7658;51.456;7.622;2022-07-29T15:51:26;25.80;99.90
15115;DHT22;7658;51.456;7.622;2022-07-29T15:53:52;25.90;99.90
15115;DHT22;7658;51.456;7.622;2022-07-29T15:56:18;25.90;99.90
15115;DHT22;7658;51.456;7.622;2022-07-29T15:58:44;26.00;99.90
15115;DHT22;7658;51.456;7.622;2022-07-29T16:01:10;25.90;99.90
15115;DHT22;7658;51.456;7.622;2022-07-29T16:03:36;25.80;99.90
15115;DHT22;7658;51.456;7.622;2022-07-29T16:06:02;25.60;99.90
15115;DHT22;7658;51.456;7.622;2022-07-29T16:08:27;25.30;99.90
15115;DHT22;7658;51.456;7.622;2022-07-29T16:10:53;24.90;99.90
15115;DHT22;7658;51.456;7.622;2022-07-29T16:13:19;24.80;99.90
15115;DHT22;7658;51.456;7.622;2022-07-29T16:15:45;24.70;99.90
15115;DHT22;7658;51.456;7.622;2022-07-29T16:18:11;24.90;99.90
15115;DHT22;7658;51.456;7.622;2022-07-29T16:20:40;25.10;99.90
15115;DHT22;7658;51.456;7.622;2022-07-29T16:23:06;25.10;99.90
15115;DHT22;7658;51.456;7.622;2022-07-29T16:25:35;25.00;99.90
15115;DHT22;7658;51.456;7.622;2022-07-29T16:28:01;24.90;99.90
15115;DHT22;7658;51.456;7.622;2022-07-29T16:30:27;24.80;99.90
15115;DHT22;7658;51.456;7.622;2022-07-29T16:32:52;24.60;99.90
15115;DHT22;7658;51.456;7.622;2022-07-29T16:35:18;24.50;99.90